createdAt,value
2023-10-30T00:03:42.085Z,100.00
2023-10-30T00:09:43.672Z,100.00
2023-10-30T00:15:45.258Z,100.00
2023-10-30T00:21:46.816Z,100.00
2023-10-30T00:27:48.484Z,100.00
2023-10-30T00:33:50.324Z,100.00
2023-10-30T00:39:51.911Z,100.00
2023-10-30T00:45:53.626Z,100.00
2023-10-30T00:51:55.217Z,100.00
2023-10-30T00:57:56.750Z,100.00
2023-10-30T01:03:58.596Z,100.00
2023-10-30T01:10:00.371Z,100.00
2023-10-30T01:16:02.070Z,100.00
2023-10-30T01:22:03.666Z,100.00
2023-10-30T01:28:05.310Z,100.00
2023-10-30T01:34:07.364Z,100.00
2023-10-30T01:40:10.217Z,100.00
2023-10-30T01:46:11.800Z,100.00
2023-10-30T01:52:14.811Z,100.00
2023-10-30T01:58:17.473Z,100.00
2023-10-30T02:04:19.725Z,100.00
2023-10-30T02:10:21.606Z,100.00
2023-10-30T02:16:23.252Z,100.00
2023-10-30T02:22:24.859Z,100.00
2023-10-30T02:28:26.423Z,100.00
2023-10-30T02:34:28.095Z,100.00
2023-10-30T02:40:29.675Z,100.00
2023-10-30T02:46:31.388Z,100.00
2023-10-30T02:52:33.552Z,100.00
2023-10-30T02:58:35.387Z,100.00
2023-10-30T03:04:37.121Z,100.00
2023-10-30T03:10:38.796Z,100.00
2023-10-30T03:16:40.393Z,100.00
2023-10-30T03:22:42.174Z,100.00
2023-10-30T03:28:43.911Z,100.00
2023-10-30T03:34:45.612Z,100.00
2023-10-30T03:40:47.180Z,100.00
2023-10-30T03:46:48.897Z,100.00
2023-10-30T03:52:51.861Z,100.00
2023-10-30T03:58:53.431Z,100.00
2023-10-30T04:04:55.781Z,100.00
2023-10-30T04:10:58.215Z,100.00
2023-10-30T04:17:02.550Z,100.00
2023-10-30T04:23:04.082Z,100.00
2023-10-30T04:29:05.680Z,100.00
2023-10-30T04:35:07.494Z,100.00
2023-10-30T04:41:09.922Z,100.00
2023-10-30T04:47:11.559Z,100.00
2023-10-30T04:53:13.176Z,100.00
2023-10-30T04:59:14.793Z,100.00
2023-10-30T05:05:16.481Z,100.00
2023-10-30T05:11:18.048Z,100.00
2023-10-30T05:17:19.585Z,100.00
2023-10-30T05:23:21.154Z,100.00
2023-10-30T05:29:22.722Z,100.00
2023-10-30T05:35:24.916Z,100.00
2023-10-30T05:41:26.922Z,100.00
2023-10-30T05:47:28.935Z,100.00
2023-10-30T05:53:30.540Z,100.00
2023-10-30T05:59:32.107Z,100.00
2023-10-30T06:05:33.798Z,100.00
2023-10-30T06:11:35.324Z,100.00
2023-10-30T06:17:36.909Z,100.00
2023-10-30T06:23:38.447Z,100.00
2023-10-30T06:29:40.062Z,100.00
2023-10-30T06:35:41.612Z,100.00
2023-10-30T06:41:43.180Z,100.00
2023-10-30T06:47:45.896Z,100.00
2023-10-30T06:53:47.513Z,100.00
2023-10-30T06:59:54.013Z,100.00
2023-10-30T07:05:55.591Z,100.00
2023-10-30T07:11:57.180Z,100.00
2023-10-30T07:17:59.278Z,100.00
2023-10-30T07:24:00.851Z,100.00
2023-10-30T07:30:03.990Z,100.00
2023-10-30T07:36:06.010Z,100.00
2023-10-30T07:42:07.619Z,100.00
2023-10-30T07:48:09.192Z,100.00
2023-10-30T07:54:10.764Z,100.00
2023-10-30T08:00:13.249Z,100.00
2023-10-30T08:06:15.031Z,100.00
2023-10-30T08:12:17.271Z,100.00
2023-10-30T08:18:19.195Z,82.39
2023-10-30T08:24:20.681Z,65.16
2023-10-30T08:30:22.959Z,60.90
2023-10-30T08:36:24.843Z,56.33
2023-10-30T08:42:26.680Z,58.07
2023-10-30T08:48:28.381Z,57.62
2023-10-30T08:54:30.081Z,58.29
2023-10-30T09:00:31.693Z,61.08
2023-10-30T09:06:33.779Z,56.97
2023-10-30T09:12:35.671Z,54.53
2023-10-30T09:18:37.421Z,52.51
2023-10-30T09:24:39.600Z,52.15
2023-10-30T09:30:41.784Z,52.47
2023-10-30T09:36:43.539Z,52.01
2023-10-30T09:42:52.525Z,54.59
2023-10-30T09:48:56.110Z,56.04
2023-10-30T09:55:00.503Z,57.13
2023-10-30T10:01:02.512Z,59.34
2023-10-30T10:07:04.993Z,61.86
2023-10-30T10:13:07.046Z,62.11
2023-10-30T10:19:23.183Z,64.53
2023-10-30T10:25:24.789Z,68.06
2023-10-30T10:31:26.410Z,70.05
2023-10-30T10:37:28.018Z,74.03
2023-10-30T10:43:31.082Z,78.29
2023-10-30T10:49:32.614Z,81.54
2023-10-30T10:55:47.526Z,87.33
2023-10-30T11:01:52.748Z,87.09
2023-10-30T11:08:04.250Z,90.37
2023-10-30T11:14:43.129Z,90.64
2023-10-30T11:20:54.074Z,93.04
2023-10-30T11:26:55.667Z,95.08
2023-10-30T11:32:58.486Z,99.23
2023-10-30T11:39:00.169Z,100.00
2023-10-30T11:45:21.818Z,100.00
2023-10-30T11:51:24.021Z,100.00
2023-10-30T11:57:26.706Z,100.00
2023-10-30T12:03:28.506Z,100.00
2023-10-30T12:09:30.192Z,100.00
2023-10-30T12:15:31.937Z,100.00
2023-10-30T12:21:33.792Z,100.00
2023-10-30T12:27:35.809Z,100.00
2023-10-30T12:33:40.379Z,100.00
2023-10-30T12:39:42.081Z,100.00
2023-10-30T12:45:43.842Z,100.00
2023-10-30T12:51:45.603Z,100.00
2023-10-30T12:57:47.189Z,100.00
2023-10-30T13:03:49.061Z,100.00
2023-10-30T13:09:51.091Z,100.00
2023-10-30T13:15:52.691Z,100.00
2023-10-30T13:21:54.410Z,100.00
2023-10-30T13:27:56.121Z,100.00
2023-10-30T13:33:57.870Z,100.00
2023-10-30T13:39:59.544Z,100.00
2023-10-30T13:46:01.203Z,100.00
2023-10-30T13:52:03.263Z,100.00
2023-10-30T13:58:04.974Z,100.00
2023-10-30T14:04:06.693Z,100.00
2023-10-30T14:10:09.021Z,100.00
2023-10-30T14:16:10.974Z,100.00
2023-10-30T14:22:12.899Z,100.00
2023-10-30T14:28:15.079Z,100.00
2023-10-30T14:34:16.663Z,100.00
2023-10-30T14:40:18.273Z,100.00
2023-10-30T14:46:19.913Z,100.00
2023-10-30T14:52:21.563Z,100.00
2023-10-30T14:58:23.471Z,100.00
2023-10-30T15:04:25.168Z,100.00
2023-10-30T15:10:28.625Z,100.00
2023-10-30T15:16:30.320Z,100.00
2023-10-30T15:22:32.088Z,100.00
2023-10-30T15:28:33.719Z,100.00
2023-10-30T15:34:35.359Z,100.00
2023-10-30T15:40:37.030Z,100.00
2023-10-30T15:46:49.709Z,100.00
2023-10-30T15:58:59.033Z,100.00
2023-10-30T16:05:02.924Z,100.00
2023-10-30T16:23:14.238Z,100.00
2023-10-30T16:29:16.368Z,100.00
2023-10-30T16:35:17.958Z,100.00
2023-10-30T16:41:20.822Z,100.00
2023-10-30T16:47:22.485Z,100.00
2023-10-30T16:53:24.932Z,100.00
2023-10-30T16:59:26.612Z,100.00
2023-10-30T17:05:28.216Z,100.00
2023-10-30T17:11:30.738Z,100.00
2023-10-30T17:17:32.322Z,100.00
2023-10-30T17:23:34.092Z,100.00
2023-10-30T17:29:35.662Z,100.00
2023-10-30T17:35:37.230Z,100.00
2023-10-30T17:41:38.825Z,100.00
2023-10-30T17:47:40.491Z,100.00
2023-10-30T17:53:43.977Z,100.00
2023-10-30T17:59:45.668Z,100.00
2023-10-30T18:05:47.337Z,100.00
2023-10-30T18:11:49.222Z,100.00
2023-10-30T18:17:51.413Z,100.00
2023-10-30T18:23:53.226Z,100.00
2023-10-30T18:29:55.121Z,100.00
2023-10-30T18:35:56.853Z,100.00
2023-10-30T18:41:58.523Z,100.00
2023-10-30T18:48:00.137Z,100.00
2023-10-30T18:54:02.280Z,100.00
2023-10-30T19:00:05.235Z,100.00
2023-10-30T19:06:06.820Z,100.00
2023-10-30T19:12:08.849Z,100.00
2023-10-30T19:18:14.861Z,100.00
2023-10-30T19:24:19.255Z,100.00
2023-10-30T19:30:22.934Z,100.00
2023-10-30T19:36:24.605Z,100.00
2023-10-30T19:42:26.181Z,100.00
2023-10-30T19:48:27.797Z,100.00
2023-10-30T19:54:29.418Z,100.00
2023-10-30T20:00:31.919Z,100.00
2023-10-30T20:06:36.128Z,100.00
2023-10-30T20:12:41.379Z,100.00
2023-10-30T20:18:45.307Z,100.00
2023-10-30T20:24:47.546Z,100.00
2023-10-30T20:30:49.169Z,100.00
2023-10-30T20:36:51.349Z,100.00
2023-10-30T20:42:54.239Z,100.00
2023-10-30T20:48:58.873Z,100.00
2023-10-30T20:55:00.504Z,100.00
2023-10-30T21:01:02.218Z,100.00
2023-10-30T21:07:04.622Z,100.00
2023-10-30T21:13:06.254Z,100.00
2023-10-30T21:19:07.817Z,100.00
2023-10-30T21:25:09.688Z,100.00
2023-10-30T21:31:11.289Z,100.00
2023-10-30T21:37:12.978Z,100.00
2023-10-30T21:43:14.617Z,100.00
2023-10-30T21:49:18.093Z,100.00
2023-10-30T21:55:20.269Z,100.00
2023-10-30T22:01:23.193Z,100.00
2023-10-30T22:07:25.053Z,100.00
2023-10-30T22:13:27.856Z,100.00
2023-10-30T22:19:29.513Z,100.00
2023-10-30T22:25:31.172Z,100.00
2023-10-30T22:31:33.045Z,100.00
2023-10-30T22:37:34.954Z,100.00
2023-10-30T22:43:36.606Z,100.00
2023-10-30T22:49:38.283Z,100.00
2023-10-30T22:55:39.945Z,100.00
2023-10-30T23:01:41.632Z,100.00
2023-10-30T23:07:43.349Z,100.00
2023-10-30T23:13:45.163Z,100.00
2023-10-30T23:19:46.778Z,100.00
2023-10-30T23:25:48.490Z,100.00
2023-10-30T23:31:50.134Z,100.00
2023-10-30T23:37:53.989Z,100.00
2023-10-30T23:43:57.166Z,100.00
2023-10-30T23:49:58.837Z,100.00
2023-10-30T23:56:00.491Z,100.00
